createdAt,value
2019-06-07T00:00:48.913Z,14.10
2019-06-07T00:03:28.944Z,14.10
2019-06-07T00:05:51.458Z,14.10
2019-06-07T00:08:27.838Z,14.00
2019-06-07T00:10:54.055Z,14.00
2019-06-07T00:13:24.407Z,14.00
2019-06-07T00:15:55.016Z,14.00
2019-06-07T00:18:26.131Z,13.90
2019-06-07T00:20:56.791Z,13.90
2019-06-07T00:23:27.082Z,13.90
2019-06-07T00:25:57.387Z,13.90
2019-06-07T00:28:27.668Z,13.90
2019-06-07T00:30:57.954Z,13.90
2019-06-07T00:33:28.516Z,13.90
2019-06-07T00:35:58.798Z,13.90
2019-06-07T00:38:29.093Z,13.90
2019-06-07T00:40:59.372Z,13.80
2019-06-07T00:43:29.658Z,13.90
2019-06-07T00:46:00.237Z,13.80
2019-06-07T00:48:32.970Z,13.80
2019-06-07T00:51:02.504Z,13.80
2019-06-07T00:53:32.913Z,13.80
2019-06-07T00:56:03.303Z,13.70
2019-06-07T00:58:34.217Z,13.70
2019-06-07T01:01:04.507Z,13.60
2019-06-07T01:03:34.791Z,13.60
2019-06-07T01:06:05.615Z,13.60
2019-06-07T01:08:36.229Z,13.50
2019-06-07T01:11:07.154Z,13.50
2019-06-07T01:13:37.435Z,13.50
2019-06-07T01:16:07.721Z,13.40
2019-06-07T01:18:45.383Z,13.30
2019-06-07T01:21:10.008Z,13.30
2019-06-07T01:24:08.734Z,13.20
2019-06-07T01:26:12.317Z,13.20
2019-06-07T01:28:42.608Z,13.20
2019-06-07T01:31:12.935Z,13.10
2019-06-07T01:33:50.726Z,13.00
2019-06-07T01:36:17.902Z,13.00
2019-06-07T01:38:47.212Z,13.00
2019-06-07T01:41:21.556Z,12.90
2019-06-07T01:43:49.489Z,12.90
2019-06-07T01:46:20.753Z,12.80
2019-06-07T01:48:51.963Z,12.80
2019-06-07T01:51:22.259Z,12.70
2019-06-07T01:54:41.173Z,12.70
2019-06-07T01:56:29.228Z,12.70
2019-06-07T01:58:56.747Z,12.70
2019-06-07T02:01:34.718Z,12.60
2019-06-07T02:03:59.020Z,12.60
2019-06-07T02:06:31.922Z,12.60
2019-06-07T02:09:01.291Z,12.60
2019-06-07T02:11:31.986Z,12.50
2019-06-07T02:14:02.929Z,12.50
2019-06-07T02:16:33.222Z,12.40
2019-06-07T02:19:03.952Z,12.40
2019-06-07T02:21:34.783Z,12.40
2019-06-07T02:24:05.429Z,12.30
2019-06-07T02:26:35.721Z,12.30
2019-06-07T02:29:06.070Z,12.30
2019-06-07T02:31:39.562Z,12.20
2019-06-07T02:34:08.417Z,12.20
2019-06-07T02:36:41.794Z,12.20
2019-06-07T02:39:10.708Z,12.20
2019-06-07T02:41:41.053Z,12.20
2019-06-07T02:44:11.806Z,12.10
2019-06-07T02:46:48.985Z,12.10
2019-06-07T02:49:14.068Z,12.00
2019-06-07T02:51:44.359Z,12.00
2019-06-07T02:54:15.199Z,12.00
2019-06-07T02:56:57.835Z,12.00
2019-06-07T02:59:42.187Z,11.90
2019-06-07T03:01:52.524Z,11.90
2019-06-07T03:04:26.425Z,11.90
2019-06-07T03:06:57.567Z,11.90
2019-06-07T03:09:32.827Z,11.90
2019-06-07T03:12:04.153Z,11.90
2019-06-07T03:14:39.050Z,12.00
2019-06-07T03:17:18.507Z,12.00
2019-06-07T03:19:52.595Z,12.00
2019-06-07T03:22:22.408Z,11.90
2019-06-07T03:24:55.354Z,11.90
2019-06-07T03:27:36.187Z,11.90
2019-06-07T03:29:58.254Z,11.70
2019-06-07T03:32:33.873Z,11.60
2019-06-07T03:35:01.094Z,11.60
2019-06-07T03:37:37.682Z,11.60
2019-06-07T03:40:04.814Z,11.50
2019-06-07T03:42:38.784Z,11.40
2019-06-07T03:45:08.947Z,11.40
2019-06-07T03:47:42.367Z,11.50
2019-06-07T03:50:11.761Z,11.60
2019-06-07T03:52:42.050Z,11.70
2019-06-07T03:55:12.471Z,11.80
2019-06-07T04:00:15.050Z,12.20
2019-06-07T04:02:45.309Z,12.30
2019-06-07T04:05:16.924Z,12.40
2019-06-07T04:07:47.176Z,12.60
2019-06-07T04:10:17.475Z,12.70
2019-06-07T04:12:47.767Z,12.80
2019-06-07T04:15:18.129Z,12.90
2019-06-07T04:18:01.473Z,13.00
2019-06-07T04:20:20.694Z,13.00
2019-06-07T04:22:50.980Z,13.00
2019-06-07T04:25:21.267Z,13.00
2019-06-07T04:27:51.611Z,12.90
2019-06-07T04:30:39.546Z,12.80
2019-06-07T04:33:15.308Z,12.70
2019-06-07T04:35:45.603Z,12.70
2019-06-07T04:38:16.479Z,12.70
2019-06-07T04:40:47.242Z,12.60
2019-06-07T04:43:17.477Z,12.60
2019-06-07T04:45:51.503Z,12.60
2019-06-07T04:48:22.669Z,12.50
2019-06-07T04:50:56.528Z,12.40
2019-06-07T04:53:26.850Z,12.40
2019-06-07T04:55:57.207Z,12.30
2019-06-07T04:58:27.494Z,12.30
2019-06-07T05:01:03.215Z,12.20
2019-06-07T05:03:34.527Z,12.20
2019-06-07T05:06:02.342Z,12.20
2019-06-07T05:08:35.158Z,12.10
2019-06-07T05:11:04.687Z,12.00
2019-06-07T05:13:38.369Z,12.00
2019-06-07T05:16:07.053Z,11.90
2019-06-07T05:18:41.616Z,12.00
2019-06-07T05:21:10.200Z,12.10
2019-06-07T05:24:06.432Z,12.00
2019-06-07T05:26:33.034Z,12.00
2019-06-07T05:29:03.903Z,12.10
2019-06-07T05:31:36.840Z,12.20
2019-06-07T05:34:06.749Z,12.30
2019-06-07T05:36:41.398Z,12.40
2019-06-07T05:39:10.080Z,12.30
2019-06-07T05:41:42.738Z,12.30
2019-06-07T05:44:14.781Z,12.40
2019-06-07T05:46:47.051Z,12.40
2019-06-07T05:49:16.356Z,12.40
2019-06-07T05:51:46.659Z,12.60
2019-06-07T05:54:17.211Z,12.60
2019-06-07T05:56:47.573Z,12.60
2019-06-07T05:59:17.858Z,12.40
2019-06-07T06:01:58.904Z,12.50
2019-06-07T06:04:20.370Z,12.60
2019-06-07T06:06:50.667Z,12.60
2019-06-07T06:09:21.012Z,12.70
2019-06-07T06:12:01.643Z,12.80
2019-06-07T06:14:23.652Z,12.90
2019-06-07T06:16:53.946Z,13.10
2019-06-07T06:19:24.218Z,13.20
2019-06-07T06:21:54.503Z,13.30
2019-06-07T06:24:24.802Z,13.40
2019-06-07T06:27:12.817Z,13.60
2019-06-07T06:29:27.384Z,13.60
2019-06-07T06:34:29.640Z,13.70
2019-06-07T06:37:01.058Z,13.80
2019-06-07T06:39:31.343Z,13.90
2019-06-07T06:42:03.870Z,14.00
2019-06-07T06:44:33.619Z,14.10
2019-06-07T06:47:04.143Z,14.00
2019-06-07T06:49:34.712Z,13.90
2019-06-07T06:52:05.529Z,13.80
2019-06-07T06:54:43.035Z,13.70
2019-06-07T06:57:19.802Z,13.80
2019-06-07T06:59:41.740Z,13.90
2019-06-07T07:02:12.032Z,13.90
2019-06-07T07:04:44.013Z,14.00
2019-06-07T07:07:15.366Z,14.20
2019-06-07T07:09:49.168Z,14.20
2019-06-07T07:12:18.750Z,14.10
2019-06-07T07:14:50.221Z,14.20
2019-06-07T07:17:44.761Z,14.20
2019-06-07T07:19:55.539Z,14.30
2019-06-07T07:22:25.018Z,14.20
2019-06-07T07:24:55.298Z,14.10
2019-06-07T07:27:25.590Z,14.20
2019-06-07T07:30:31.280Z,14.20
2019-06-07T07:32:27.917Z,14.20
2019-06-07T07:35:00.460Z,14.30
2019-06-07T07:37:30.209Z,14.30
2019-06-07T07:40:09.570Z,14.30
2019-06-07T07:42:32.482Z,14.30
2019-06-07T07:45:02.826Z,14.40
2019-06-07T07:47:33.608Z,14.40
2019-06-07T07:50:05.801Z,14.50
2019-06-07T07:52:36.355Z,14.60
2019-06-07T07:55:06.745Z,14.70
2019-06-07T07:57:36.978Z,14.70
2019-06-07T08:00:48.779Z,14.80
2019-06-07T08:02:40.255Z,14.90
2019-06-07T08:05:25.180Z,15.20
2019-06-07T08:07:43.059Z,15.40
2019-06-07T08:10:13.878Z,15.60
2019-06-07T08:13:09.102Z,15.70
2019-06-07T08:15:18.084Z,15.90
2019-06-07T08:17:51.581Z,16.10
2019-06-07T08:20:20.616Z,16.10
2019-06-07T08:22:52.541Z,16.20
2019-06-07T08:25:23.173Z,16.40
2019-06-07T08:27:56.010Z,16.60
2019-06-07T08:31:03.660Z,16.70
2019-06-07T08:33:23.950Z,16.70
2019-06-07T08:36:03.719Z,16.50
2019-06-07T08:40:35.663Z,16.60
2019-06-07T08:43:18.205Z,16.60
2019-06-07T08:45:37.969Z,16.80
2019-06-07T08:48:26.702Z,16.90
2019-06-07T08:50:40.353Z,17.20
2019-06-07T08:53:12.201Z,17.30
2019-06-07T08:55:43.248Z,17.60
2019-06-07T08:58:13.544Z,17.80
2019-06-07T09:00:47.145Z,18.00
2019-06-07T09:03:16.031Z,18.00
2019-06-07T09:05:46.369Z,18.20
2019-06-07T09:08:30.368Z,18.50
2019-06-07T09:10:48.634Z,18.60
2019-06-07T09:13:18.993Z,18.80
2019-06-07T09:15:49.193Z,18.90
2019-06-07T09:18:43.065Z,19.00
2019-06-07T09:20:51.587Z,19.00
2019-06-07T09:23:21.860Z,18.90
2019-06-07T09:26:00.857Z,19.00
2019-06-07T09:28:25.010Z,19.10
2019-06-07T09:30:57.102Z,19.30
2019-06-07T09:33:27.637Z,19.50
2019-06-07T09:36:00.387Z,19.50
2019-06-07T09:38:29.957Z,19.60
2019-06-07T09:41:02.422Z,19.70
2019-06-07T09:44:00.789Z,19.80
2019-06-07T09:46:11.473Z,19.90
2019-06-07T09:51:19.003Z,20.10
2019-06-07T09:53:40.528Z,20.10
2019-06-07T09:56:12.087Z,20.20
2019-06-07T09:58:52.471Z,20.20
2019-06-07T10:01:14.747Z,20.20
2019-06-07T10:03:45.026Z,20.30
2019-06-07T10:06:15.314Z,20.50
2019-06-07T10:11:17.836Z,20.70
2019-06-07T10:13:48.111Z,20.90
2019-06-07T10:16:18.412Z,21.10
2019-06-07T10:18:48.678Z,21.20
2019-06-07T10:21:19.022Z,21.30
2019-06-07T10:23:50.426Z,21.40
2019-06-07T10:26:20.701Z,21.40
2019-06-07T10:28:53.404Z,21.40
2019-06-07T10:31:22.962Z,21.50
2019-06-07T10:33:53.253Z,21.70
2019-06-07T10:36:23.536Z,21.90
2019-06-07T10:38:53.828Z,22.00
2019-06-07T10:41:24.099Z,22.20
2019-06-07T10:43:54.377Z,22.30
2019-06-07T10:46:24.677Z,22.50
2019-06-07T10:48:55.033Z,22.50
2019-06-07T10:51:25.294Z,22.60
2019-06-07T10:53:55.567Z,22.80
2019-06-07T10:56:25.853Z,22.90
2019-06-07T10:58:56.133Z,23.10
2019-06-07T11:01:26.407Z,23.20
2019-06-07T11:03:56.689Z,23.20
2019-06-07T11:06:27.796Z,23.20
2019-06-07T11:08:58.075Z,23.20
2019-06-07T11:11:28.445Z,23.40
2019-06-07T11:13:58.770Z,23.70
2019-06-07T11:16:29.124Z,23.80
2019-06-07T11:18:59.709Z,23.90
2019-06-07T11:21:30.330Z,24.00
2019-06-07T11:24:00.691Z,24.10
2019-06-07T11:26:31.200Z,24.00
2019-06-07T11:29:01.489Z,23.80
2019-06-07T11:31:31.765Z,23.80
2019-06-07T11:34:02.052Z,23.80
2019-06-07T11:36:32.324Z,24.00
2019-06-07T11:39:02.606Z,24.10
2019-06-07T11:41:32.881Z,24.30
2019-06-07T11:44:03.232Z,24.60
2019-06-07T11:46:33.673Z,24.80
2019-06-07T11:49:04.231Z,24.90
2019-06-07T11:51:34.742Z,24.90
2019-06-07T11:54:05.304Z,25.20
2019-06-07T11:56:35.646Z,25.70
2019-06-07T11:59:07.034Z,26.00
2019-06-07T12:01:37.472Z,26.10
2019-06-07T12:04:07.842Z,26.40
2019-06-07T12:06:38.133Z,27.10
2019-06-07T12:09:10.532Z,27.70
2019-06-07T12:11:40.890Z,28.40
2019-06-07T12:14:12.804Z,28.60
2019-06-07T12:16:43.300Z,28.70
2019-06-07T12:19:13.650Z,28.50
2019-06-07T12:21:43.946Z,28.30
2019-06-07T12:24:14.272Z,28.30
2019-06-07T12:26:44.492Z,28.50
2019-06-07T12:29:14.944Z,28.60
2019-06-07T12:31:45.317Z,28.20
2019-06-07T12:34:15.677Z,27.70
2019-06-07T12:36:45.949Z,27.80
2019-06-07T12:39:18.044Z,27.50
2019-06-07T12:41:48.319Z,27.10
2019-06-07T12:44:18.922Z,27.10
2019-06-07T12:46:49.198Z,27.30
2019-06-07T12:49:19.478Z,27.40
2019-06-07T12:51:49.757Z,27.50
2019-06-07T12:54:20.028Z,28.40
2019-06-07T12:56:52.426Z,29.30
2019-06-07T12:59:22.708Z,29.70
2019-06-07T13:01:53.556Z,30.20
2019-06-07T13:04:25.019Z,30.60
2019-06-07T13:06:55.391Z,30.80
2019-06-07T13:09:25.678Z,30.70
2019-06-07T13:11:55.954Z,30.90
2019-06-07T13:14:26.236Z,30.90
2019-06-07T13:16:56.827Z,31.00
2019-06-07T13:19:28.493Z,31.40
2019-06-07T13:21:58.869Z,31.20
2019-06-07T13:24:30.277Z,31.30
2019-06-07T13:27:01.094Z,31.00
2019-06-07T13:29:32.237Z,30.70
2019-06-07T13:32:02.778Z,30.40
2019-06-07T13:34:33.277Z,29.90
2019-06-07T13:37:03.659Z,29.80
2019-06-07T13:39:33.926Z,29.80
2019-06-07T13:42:04.637Z,29.70
2019-06-07T13:44:35.206Z,29.70
2019-06-07T13:47:05.741Z,29.50
2019-06-07T13:49:36.275Z,29.40
2019-06-07T13:52:06.560Z,29.10
2019-06-07T13:54:36.830Z,29.10
2019-06-07T13:57:07.448Z,29.10
2019-06-07T13:59:37.977Z,29.20
2019-06-07T14:02:08.279Z,29.40
2019-06-07T14:04:38.621Z,29.50
2019-06-07T14:07:08.917Z,29.20
2019-06-07T14:09:39.197Z,28.60
2019-06-07T14:12:09.477Z,28.40
2019-06-07T14:14:39.763Z,28.10
2019-06-07T14:17:10.036Z,27.90
2019-06-07T14:19:40.318Z,27.90
2019-06-07T14:22:10.597Z,27.90
2019-06-07T14:24:40.910Z,27.90
2019-06-07T14:27:11.271Z,28.20
2019-06-07T14:29:41.628Z,28.30
2019-06-07T14:32:12.191Z,28.30
2019-06-07T14:34:42.476Z,28.30
2019-06-07T14:37:12.761Z,28.50
2019-06-07T14:39:43.065Z,28.70
2019-06-07T14:42:13.345Z,28.60
2019-06-07T14:44:43.621Z,28.60
2019-06-07T14:47:13.892Z,28.70
2019-06-07T14:49:44.701Z,28.90
2019-06-07T14:52:14.978Z,29.10
2019-06-07T14:54:45.527Z,29.30
2019-06-07T14:57:15.813Z,29.20
2019-06-07T14:59:46.085Z,29.20
2019-06-07T15:02:16.706Z,29.20
2019-06-07T15:04:48.392Z,29.20
2019-06-07T15:07:18.669Z,29.00
2019-06-07T15:09:48.952Z,28.90
2019-06-07T15:12:24.928Z,28.90
2019-06-07T15:14:51.517Z,28.80
2019-06-07T15:17:22.035Z,28.70
2019-06-07T15:19:52.333Z,28.60
2019-06-07T15:22:22.605Z,28.50
2019-06-07T15:24:52.896Z,28.50
2019-06-07T15:27:23.295Z,28.60
2019-06-07T15:29:53.574Z,28.60
2019-06-07T15:32:23.846Z,28.70
2019-06-07T15:34:54.147Z,28.60
2019-06-07T15:37:24.560Z,28.50
2019-06-07T15:39:54.817Z,28.40
2019-06-07T15:42:40.670Z,28.20
2019-06-07T15:44:58.471Z,28.00
2019-06-07T15:47:29.573Z,28.00
2019-06-07T15:49:59.881Z,27.80
2019-06-07T15:52:31.459Z,27.70
2019-06-07T15:55:01.727Z,27.60
2019-06-07T15:57:33.280Z,27.50
2019-06-07T16:00:06.875Z,27.50
2019-06-07T16:02:37.574Z,27.40
2019-06-07T16:05:08.073Z,27.30
2019-06-07T16:07:38.421Z,27.20
2019-06-07T16:10:11.638Z,27.20
2019-06-07T16:12:55.307Z,27.10
2019-06-07T16:15:15.106Z,27.10
2019-06-07T16:17:45.458Z,27.10
2019-06-07T16:20:16.844Z,27.00
2019-06-07T16:22:47.120Z,27.00
2019-06-07T16:25:17.839Z,26.90
2019-06-07T16:27:48.115Z,27.10
2019-06-07T16:30:19.613Z,27.30
2019-06-07T16:32:49.876Z,27.60
2019-06-07T16:35:23.298Z,27.70
2019-06-07T16:37:53.577Z,27.80
2019-06-07T16:40:23.918Z,27.70
2019-06-07T16:42:54.192Z,27.70
2019-06-07T16:45:25.249Z,27.60
2019-06-07T16:47:55.529Z,27.50
2019-06-07T16:50:25.810Z,27.40
2019-06-07T16:52:56.161Z,27.40
2019-06-07T16:55:26.436Z,27.40
2019-06-07T16:57:56.714Z,27.30
2019-06-07T17:00:27.535Z,27.20
2019-06-07T17:02:57.816Z,27.10
2019-06-07T17:05:28.084Z,27.10
2019-06-07T17:07:58.738Z,26.90
2019-06-07T17:10:29.019Z,26.90
2019-06-07T17:12:59.309Z,26.80
2019-06-07T17:15:29.586Z,26.50
2019-06-07T17:17:59.865Z,26.10
2019-06-07T17:20:30.160Z,25.50
2019-06-07T17:23:00.456Z,25.30
2019-06-07T17:25:30.728Z,25.00
2019-06-07T17:28:01.238Z,24.90
2019-06-07T17:30:31.518Z,24.60
2019-06-07T17:33:01.792Z,23.60
2019-06-07T17:35:32.078Z,22.70
2019-06-07T17:38:02.354Z,21.60
2019-06-07T17:40:32.637Z,20.60
2019-06-07T17:43:03.176Z,20.20
2019-06-07T17:45:33.459Z,19.80
2019-06-07T17:48:03.839Z,19.50
2019-06-07T17:50:34.108Z,19.30
2019-06-07T17:53:04.465Z,19.00
2019-06-07T17:55:34.738Z,18.80
2019-06-07T17:58:05.089Z,18.60
2019-06-07T18:00:53.063Z,18.10
2019-06-07T18:03:23.554Z,17.60
2019-06-07T18:05:54.675Z,16.90
2019-06-07T18:08:26.017Z,16.40
2019-06-07T18:10:56.300Z,16.10
2019-06-07T18:13:26.575Z,15.90
2019-06-07T18:15:59.670Z,15.60
2019-06-07T18:18:29.131Z,15.50
2019-06-07T18:20:59.400Z,15.40
2019-06-07T18:23:29.683Z,15.30
2019-06-07T18:26:00.301Z,15.30
2019-06-07T18:28:30.580Z,15.30
2019-06-07T18:31:00.861Z,15.40
2019-06-07T18:33:31.481Z,15.30
2019-06-07T18:36:03.178Z,15.20
2019-06-07T18:38:34.587Z,15.10
2019-06-07T18:41:04.861Z,15.00
2019-06-07T18:43:35.139Z,14.90
2019-06-07T18:46:05.428Z,14.80
2019-06-07T18:48:35.709Z,14.70
2019-06-07T18:51:06.078Z,14.60
2019-06-07T18:53:36.642Z,14.50
2019-06-07T18:56:06.931Z,14.50
2019-06-07T18:58:37.223Z,14.50
2019-06-07T19:01:07.501Z,14.50
2019-06-07T19:03:37.780Z,14.50
2019-06-07T19:06:08.071Z,14.40
2019-06-07T19:08:38.338Z,14.40
2019-06-07T19:11:08.625Z,14.30
2019-06-07T19:13:38.897Z,14.30
2019-06-07T19:16:09.190Z,14.30
2019-06-07T19:18:39.463Z,14.40
2019-06-07T19:21:09.745Z,14.40
2019-06-07T19:23:40.030Z,14.40
2019-06-07T19:26:10.557Z,14.50
2019-06-07T19:28:40.838Z,14.50
2019-06-07T19:31:11.125Z,14.50
2019-06-07T19:33:49.101Z,14.50
2019-06-07T19:36:13.372Z,14.60
2019-06-07T19:38:43.657Z,14.70
2019-06-07T19:41:19.576Z,14.70
2019-06-07T19:43:45.917Z,14.70
2019-06-07T19:46:16.192Z,14.60
2019-06-07T19:48:46.474Z,14.60
2019-06-07T19:51:20.231Z,14.60
2019-06-07T19:53:48.731Z,14.60
2019-06-07T19:56:19.011Z,14.50
2019-06-07T19:58:49.583Z,14.50
2019-06-07T20:01:19.867Z,14.50
2019-06-07T20:03:50.574Z,14.50
2019-06-07T20:06:21.178Z,14.50
2019-06-07T20:08:51.471Z,14.50
2019-06-07T20:11:21.743Z,14.40
2019-06-07T20:13:52.022Z,14.50
2019-06-07T20:16:22.305Z,14.50
2019-06-07T20:18:52.591Z,14.50
2019-06-07T20:21:22.876Z,14.50
2019-06-07T20:23:53.154Z,14.50
2019-06-07T20:26:23.447Z,14.50
2019-06-07T20:28:53.711Z,14.50
2019-06-07T20:31:23.997Z,14.60
2019-06-07T20:33:54.349Z,14.60
2019-06-07T20:36:24.656Z,14.90
2019-06-07T20:38:55.297Z,15.20
2019-06-07T20:41:25.847Z,15.60
2019-06-07T20:43:57.647Z,15.80
2019-06-07T20:46:28.343Z,16.00
2019-06-07T20:49:00.316Z,15.90
2019-06-07T20:51:32.091Z,15.70
2019-06-07T20:54:02.649Z,15.60
2019-06-07T20:56:32.889Z,15.50
2019-06-07T20:59:04.672Z,15.30
2019-06-07T21:01:34.996Z,15.20
2019-06-07T21:04:05.346Z,15.00
2019-06-07T21:06:35.618Z,14.90
2019-06-07T21:09:08.210Z,14.90
2019-06-07T21:11:38.498Z,14.80
2019-06-07T21:14:08.784Z,14.80
2019-06-07T21:16:39.069Z,14.70
2019-06-07T21:19:10.432Z,14.70
2019-06-07T21:21:40.829Z,14.60
2019-06-07T21:24:11.110Z,14.60
2019-06-07T21:26:41.713Z,14.50
2019-06-07T21:29:12.143Z,14.50
2019-06-07T21:31:42.404Z,14.40
2019-06-07T21:34:14.197Z,14.40
2019-06-07T21:36:44.633Z,14.40
2019-06-07T21:39:14.907Z,14.30
2019-06-07T21:41:46.328Z,14.30
2019-06-07T21:44:16.924Z,14.30
2019-06-07T21:46:47.209Z,14.30
2019-06-07T21:49:17.721Z,14.30
2019-06-07T21:51:48.004Z,14.30
2019-06-07T21:54:18.287Z,14.30
2019-06-07T21:56:48.577Z,14.30
2019-06-07T21:59:18.845Z,14.30
2019-06-07T22:01:49.657Z,14.30
2019-06-07T22:04:19.998Z,14.40
2019-06-07T22:06:50.274Z,14.40
2019-06-07T22:09:20.581Z,14.50
2019-06-07T22:11:50.845Z,14.50
2019-06-07T22:14:21.137Z,14.50
2019-06-07T22:16:51.411Z,14.50
2019-06-07T22:19:21.719Z,14.40
2019-06-07T22:22:02.085Z,14.40
2019-06-07T22:24:24.605Z,14.30
2019-06-07T22:26:55.109Z,14.20
2019-06-07T22:29:25.399Z,14.20
2019-06-07T22:31:55.685Z,14.10
2019-06-07T22:34:25.967Z,14.10
2019-06-07T22:36:56.240Z,14.10
2019-06-07T22:39:26.617Z,14.00
2019-06-07T22:41:56.907Z,14.00
2019-06-07T22:44:27.186Z,14.00
2019-06-07T22:46:57.472Z,13.90
2019-06-07T22:49:27.744Z,13.90
2019-06-07T22:52:08.274Z,13.80
2019-06-07T22:54:30.880Z,13.80
2019-06-07T22:57:02.768Z,13.80
2019-06-07T22:59:33.042Z,13.80
2019-06-07T23:02:03.334Z,13.70
2019-06-07T23:04:33.630Z,13.70
2019-06-07T23:07:03.984Z,13.70
2019-06-07T23:09:34.274Z,13.60
2019-06-07T23:12:04.553Z,13.60
2019-06-07T23:14:47.230Z,13.60
2019-06-07T23:17:18.001Z,13.60
2019-06-07T23:19:48.469Z,13.60
2019-06-07T23:22:20.062Z,13.60
2019-06-07T23:24:50.412Z,13.60
2019-06-07T23:27:20.843Z,13.70
2019-06-07T23:29:51.549Z,13.60
2019-06-07T23:32:21.832Z,13.70
2019-06-07T23:34:52.179Z,13.70
2019-06-07T23:37:22.494Z,13.70
2019-06-07T23:39:52.790Z,13.60
2019-06-07T23:42:23.064Z,13.70
2019-06-07T23:44:53.347Z,13.60
2019-06-07T23:47:23.640Z,13.70
2019-06-07T23:49:53.945Z,13.70
2019-06-07T23:52:24.219Z,13.70
2019-06-07T23:54:54.512Z,13.70
2019-06-07T23:57:24.788Z,13.70
2019-06-07T23:59:55.066Z,13.70
